sensor_id;sensor_type;location;lat;lon;timestamp;P1;durP1;ratioP1;P2;durP2;ratioP2
21010;SDS011;10663;42.714;23.274;2024-01-27T05:13:03;9.02;;;4.47;;
21010;SDS011;10663;42.714;23.274;2024-01-27T05:14:34;8.13;;;4.22;;
21010;SDS011;10663;42.714;23.274;2024-01-27T05:16:05;8.27;;;4.57;;
21010;SDS011;10663;42.714;23.274;2024-01-27T05:17:36;7.53;;;4.55;;
21010;SDS011;10663;42.714;23.274;2024-01-27T05:19:06;8.15;;;4.47;;
21010;SDS011;10663;42.714;23.274;2024-01-27T05:20:37;9.10;;;4.68;;
21010;SDS011;10663;42.714;23.274;2024-01-27T05:22:08;9.97;;;5.00;;
21010;SDS011;10663;42.714;23.274;2024-01-27T05:23:38;6.50;;;4.33;;
21010;SDS011;10663;42.714;23.274;2024-01-27T05:25:09;9.75;;;4.78;;
21010;SDS011;10663;42.714;23.274;2024-01-27T05:26:40;8.13;;;4.50;;
21010;SDS011;10663;42.714;23.274;2024-01-27T05:28:11;7.85;;;5.10;;
21010;SDS011;10663;42.714;23.274;2024-01-27T05:29:42;8.02;;;5.05;;
21010;SDS011;10663;42.714;23.274;2024-01-27T05:31:12;9.18;;;5.05;;
21010;SDS011;10663;42.714;23.274;2024-01-27T05:32:43;12.87;;;6.10;;
21010;SDS011;10663;42.714;23.274;2024-01-27T05:34:14;10.77;;;5.43;;
21010;SDS011;10663;42.714;23.274;2024-01-27T05:35:45;12.68;;;5.82;;
21010;SDS011;10663;42.714;23.274;2024-01-27T05:37:15;10.47;;;5.43;;
21010;SDS011;10663;42.714;23.274;2024-01-27T05:38:46;8.70;;;5.47;;
21010;SDS011;10663;42.714;23.274;2024-01-27T05:40:17;9.65;;;5.78;;
21010;SDS011;10663;42.714;23.274;2024-01-27T05:41:48;11.60;;;5.78;;
21010;SDS011;10663;42.714;23.274;2024-01-27T05:43:19;10.40;;;5.38;;
21010;SDS011;10663;42.714;23.274;2024-01-27T05:44:50;10.75;;;5.50;;
21010;SDS011;10663;42.714;23.274;2024-01-27T05:46:21;9.23;;;5.07;;
21010;SDS011;10663;42.714;23.274;2024-01-27T05:47:51;10.10;;;5.13;;
21010;SDS011;10663;42.714;23.274;2024-01-27T05:49:22;10.43;;;5.77;;
21010;SDS011;10663;42.714;23.274;2024-01-27T05:50:57;11.07;;;5.00;;
21010;SDS011;10663;42.714;23.274;2024-01-27T05:52:28;11.37;;;5.60;;
21010;SDS011;10663;42.714;23.274;2024-01-27T05:53:59;10.40;;;5.40;;
21010;SDS011;10663;42.714;23.274;2024-01-27T05:55:30;10.32;;;5.40;;
21010;SDS011;10663;42.714;23.274;2024-01-27T05:57:00;11.98;;;5.97;;
21010;SDS011;10663;42.714;23.274;2024-01-27T05:58:33;10.65;;;5.65;;
21010;SDS011;10663;42.714;23.274;2024-01-27T06:00:04;11.48;;;5.88;;
21010;SDS011;10663;42.714;23.274;2024-01-27T06:01:39;11.18;;;6.22;;
21010;SDS011;10663;42.714;23.274;2024-01-27T06:03:11;12.13;;;6.13;;
21010;SDS011;10663;42.714;23.274;2024-01-27T06:04:42;10.82;;;6.18;;
21010;SDS011;10663;42.714;23.274;2024-01-27T06:06:12;14.00;;;6.63;;
21010;SDS011;10663;42.714;23.274;2024-01-27T06:07:43;11.75;;;6.50;;
21010;SDS011;10663;42.714;23.274;2024-01-27T06:09:15;11.90;;;6.63;;
21010;SDS011;10663;42.714;23.274;2024-01-27T06:10:46;12.37;;;6.57;;
21010;SDS011;10663;42.714;23.274;2024-01-27T06:12:17;16.92;;;7.03;;
21010;SDS011;10663;42.714;23.274;2024-01-27T06:13:49;15.73;;;7.13;;
21010;SDS011;10663;42.714;23.274;2024-01-27T06:15:20;11.98;;;7.03;;
21010;SDS011;10663;42.714;23.274;2024-01-27T06:16:51;13.05;;;7.07;;
21010;SDS011;10663;42.714;23.274;2024-01-27T06:18:21;9.48;;;6.63;;
21010;SDS011;10663;42.714;23.274;2024-01-27T06:19:53;13.20;;;7.30;;
21010;SDS011;10663;42.714;23.274;2024-01-27T06:21:24;13.45;;;7.57;;
21010;SDS011;10663;42.714;23.274;2024-01-27T06:22:55;13.68;;;7.18;;
21010;SDS011;10663;42.714;23.274;2024-01-27T06:24:26;13.13;;;7.30;;
21010;SDS011;10663;42.714;23.274;2024-01-27T06:25:57;12.32;;;7.20;;
21010;SDS011;10663;42.714;23.274;2024-01-27T06:27:27;11.52;;;5.90;;
21010;SDS011;10663;42.714;23.274;2024-01-27T06:28:58;10.13;;;5.95;;
21010;SDS011;10663;42.714;23.274;2024-01-27T06:30:30;10.77;;;5.60;;
21010;SDS011;10663;42.714;23.274;2024-01-27T06:32:01;9.45;;;5.70;;
21010;SDS011;10663;42.714;23.274;2024-01-27T06:33:32;7.40;;;5.00;;
21010;SDS011;10663;42.714;23.274;2024-01-27T06:35:03;8.48;;;5.07;;
21010;SDS011;10663;42.714;23.274;2024-01-27T06:36:34;10.27;;;5.22;;
21010;SDS011;10663;42.714;23.274;2024-01-27T06:38:05;7.17;;;4.80;;
21010;SDS011;10663;42.714;23.274;2024-01-27T06:39:35;7.90;;;4.53;;
21010;SDS011;10663;42.714;23.274;2024-01-27T06:41:06;6.28;;;4.18;;
21010;SDS011;10663;42.714;23.274;2024-01-27T06:42:37;7.32;;;4.28;;
21010;SDS011;10663;42.714;23.274;2024-01-27T06:44:08;8.80;;;4.65;;
21010;SDS011;10663;42.714;23.274;2024-01-27T06:45:39;7.07;;;4.28;;
21010;SDS011;10663;42.714;23.274;2024-01-27T06:47:10;9.57;;;5.35;;
21010;SDS011;10663;42.714;23.274;2024-01-27T06:48:41;9.30;;;5.27;;
21010;SDS011;10663;42.714;23.274;2024-01-27T06:50:12;9.02;;;5.55;;
21010;SDS011;10663;42.714;23.274;2024-01-27T06:51:44;9.98;;;5.60;;
21010;SDS011;10663;42.714;23.274;2024-01-27T06:53:14;10.48;;;5.05;;
21010;SDS011;10663;42.714;23.274;2024-01-27T06:54:45;7.30;;;4.75;;
21010;SDS011;10663;42.714;23.274;2024-01-27T06:56:16;7.60;;;4.40;;
21010;SDS011;10663;42.714;23.274;2024-01-27T06:57:47;8.02;;;4.43;;
21010;SDS011;10663;42.714;23.274;2024-01-27T06:59:17;8.40;;;4.72;;
21010;SDS011;10663;42.714;23.274;2024-01-27T07:00:48;6.03;;;3.80;;
21010;SDS011;10663;42.714;23.274;2024-01-27T07:02:22;5.87;;;3.57;;
21010;SDS011;10663;42.714;23.274;2024-01-27T07:03:59;4.22;;;3.10;;
21010;SDS011;10663;42.714;23.274;2024-01-27T07:05:30;5.25;;;2.90;;
21010;SDS011;10663;42.714;23.274;2024-01-27T07:07:03;4.03;;;2.97;;
21010;SDS011;10663;42.714;23.274;2024-01-27T07:08:34;3.87;;;2.70;;
21010;SDS011;10663;42.714;23.274;2024-01-27T07:10:04;3.17;;;2.60;;
21010;SDS011;10663;42.714;23.274;2024-01-27T07:11:37;3.60;;;2.60;;
21010;SDS011;10663;42.714;23.274;2024-01-27T07:13:08;3.28;;;2.40;;
21010;SDS011;10663;42.714;23.274;2024-01-27T07:14:39;3.17;;;2.60;;
21010;SDS011;10663;42.714;23.274;2024-01-27T07:16:10;3.17;;;2.50;;
21010;SDS011;10663;42.714;23.274;2024-01-27T07:17:40;3.70;;;2.13;;
21010;SDS011;10663;42.714;23.274;2024-01-27T07:19:11;5.28;;;2.50;;
21010;SDS011;10663;42.714;23.274;2024-01-27T07:20:42;4.90;;;2.70;;
21010;SDS011;10663;42.714;23.274;2024-01-27T07:22:12;3.37;;;2.50;;
21010;SDS011;10663;42.714;23.274;2024-01-27T07:23:43;4.90;;;3.03;;
21010;SDS011;10663;42.714;23.274;2024-01-27T07:25:14;5.30;;;3.25;;
21010;SDS011;10663;42.714;23.274;2024-01-27T07:26:46;3.63;;;3.00;;
21010;SDS011;10663;42.714;23.274;2024-01-27T07:28:16;4.93;;;3.35;;
21010;SDS011;10663;42.714;23.274;2024-01-27T07:29:48;6.85;;;3.47;;
21010;SDS011;10663;42.714;23.274;2024-01-27T07:31:19;5.18;;;3.80;;
21010;SDS011;10663;42.714;23.274;2024-01-27T07:32:50;4.10;;;3.33;;
21010;SDS011;10663;42.714;23.274;2024-01-27T07:34:21;4.27;;;3.70;;
21010;SDS011;10663;42.714;23.274;2024-01-27T07:35:51;4.53;;;3.03;;
21010;SDS011;10663;42.714;23.274;2024-01-27T07:37:22;5.30;;;2.78;;
21010;SDS011;10663;42.714;23.274;2024-01-27T07:38:53;5.18;;;3.30;;
21010;SDS011;10663;42.714;23.274;2024-01-27T07:40:23;5.18;;;3.38;;
21010;SDS011;10663;42.714;23.274;2024-01-27T07:41:54;5.88;;;3.88;;
21010;SDS011;10663;42.714;23.274;2024-01-27T07:43:25;5.90;;;3.90;;
21010;SDS011;10663;42.714;23.274;2024-01-27T07:44:56;5.05;;;3.08;;
21010;SDS011;10663;42.714;23.274;2024-01-27T07:46:27;3.45;;;2.83;;
21010;SDS011;10663;42.714;23.274;2024-01-27T07:47:58;3.28;;;2.65;;
21010;SDS011;10663;42.714;23.274;2024-01-27T07:49:29;4.95;;;3.17;;
21010;SDS011;10663;42.714;23.274;2024-01-27T07:51:00;4.82;;;2.88;;
21010;SDS011;10663;42.714;23.274;2024-01-27T07:52:31;2.90;;;2.60;;
21010;SDS011;10663;42.714;23.274;2024-01-27T07:54:01;3.60;;;3.10;;
21010;SDS011;10663;42.714;23.274;2024-01-27T07:55:32;3.80;;;3.30;;
21010;SDS011;10663;42.714;23.274;2024-01-27T07:57:03;4.95;;;3.00;;
21010;SDS011;10663;42.714;23.274;2024-01-27T07:58:34;3.80;;;3.30;;
21010;SDS011;10663;42.714;23.274;2024-01-27T08:00:05;4.00;;;3.30;;
21010;SDS011;10663;42.714;23.274;2024-01-27T08:01:36;4.93;;;3.70;;
21010;SDS011;10663;42.714;23.274;2024-01-27T08:03:07;5.72;;;3.55;;
21010;SDS011;10663;42.714;23.274;2024-01-27T08:04:38;4.32;;;3.40;;
21010;SDS011;10663;42.714;23.274;2024-01-27T08:06:16;5.65;;;3.75;;
21010;SDS011;10663;42.714;23.274;2024-01-27T08:07:48;6.32;;;3.97;;
21010;SDS011;10663;42.714;23.274;2024-01-27T08:09:20;7.55;;;4.13;;
21010;SDS011;10663;42.714;23.274;2024-01-27T08:10:50;6.53;;;4.25;;
21010;SDS011;10663;42.714;23.274;2024-01-27T08:12:21;6.70;;;4.20;;
21010;SDS011;10663;42.714;23.274;2024-01-27T08:13:53;6.10;;;4.28;;
21010;SDS011;10663;42.714;23.274;2024-01-27T08:15:24;5.22;;;4.13;;
21010;SDS011;10663;42.714;23.274;2024-01-27T08:16:55;7.15;;;4.28;;
21010;SDS011;10663;42.714;23.274;2024-01-27T08:18:27;6.13;;;4.15;;
21010;SDS011;10663;42.714;23.274;2024-01-27T08:19:58;6.55;;;3.80;;
21010;SDS011;10663;42.714;23.274;2024-01-27T08:21:29;5.85;;;4.38;;
21010;SDS011;10663;42.714;23.274;2024-01-27T08:23:01;5.32;;;4.00;;
21010;SDS011;10663;42.714;23.274;2024-01-27T08:24:31;5.55;;;4.53;;
21010;SDS011;10663;42.714;23.274;2024-01-27T08:26:02;5.65;;;3.85;;
21010;SDS011;10663;42.714;23.274;2024-01-27T08:27:33;5.55;;;4.20;;
21010;SDS011;10663;42.714;23.274;2024-01-27T08:29:03;4.40;;;4.00;;
21010;SDS011;10663;42.714;23.274;2024-01-27T08:30:34;7.43;;;4.30;;
21010;SDS011;10663;42.714;23.274;2024-01-27T08:32:05;5.90;;;4.60;;
21010;SDS011;10663;42.714;23.274;2024-01-27T08:33:36;5.40;;;4.40;;
21010;SDS011;10663;42.714;23.274;2024-01-27T08:35:07;6.93;;;4.13;;
21010;SDS011;10663;42.714;23.274;2024-01-27T08:36:38;5.72;;;4.30;;
21010;SDS011;10663;42.714;23.274;2024-01-27T08:38:29;6.45;;;3.95;;
21010;SDS011;10663;42.714;23.274;2024-01-27T08:40:00;6.47;;;4.38;;
21010;SDS011;10663;42.714;23.274;2024-01-27T08:41:31;5.55;;;4.20;;
21010;SDS011;10663;42.714;23.274;2024-01-27T08:43:02;5.00;;;3.70;;
21010;SDS011;10663;42.714;23.274;2024-01-27T08:44:32;4.43;;;3.53;;
21010;SDS011;10663;42.714;23.274;2024-01-27T08:46:03;4.63;;;3.57;;
21010;SDS011;10663;42.714;23.274;2024-01-27T08:47:34;4.25;;;3.47;;
21010;SDS011;10663;42.714;23.274;2024-01-27T08:49:05;5.28;;;3.50;;
21010;SDS011;10663;42.714;23.274;2024-01-27T08:50:36;3.60;;;2.97;;
21010;SDS011;10663;42.714;23.274;2024-01-27T08:52:07;5.07;;;3.47;;
21010;SDS011;10663;42.714;23.274;2024-01-27T08:53:38;4.75;;;3.70;;
21010;SDS011;10663;42.714;23.274;2024-01-27T08:55:09;4.05;;;3.45;;
21010;SDS011;10663;42.714;23.274;2024-01-27T08:56:40;4.65;;;3.55;;
21010;SDS011;10663;42.714;23.274;2024-01-27T08:58:11;4.20;;;3.28;;
21010;SDS011;10663;42.714;23.274;2024-01-27T08:59:42;4.93;;;3.30;;
21010;SDS011;10663;42.714;23.274;2024-01-27T09:01:13;4.40;;;3.70;;
21010;SDS011;10663;42.714;23.274;2024-01-27T09:02:46;5.88;;;3.90;;
21010;SDS011;10663;42.714;23.274;2024-01-27T09:04:18;3.53;;;3.03;;
21010;SDS011;10663;42.714;23.274;2024-01-27T09:05:48;3.60;;;3.25;;
21010;SDS011;10663;42.714;23.274;2024-01-27T09:07:20;4.07;;;3.15;;
21010;SDS011;10663;42.714;23.274;2024-01-27T09:08:51;4.47;;;3.57;;
21010;SDS011;10663;42.714;23.274;2024-01-27T09:10:22;3.58;;;3.28;;
21010;SDS011;10663;42.714;23.274;2024-01-27T09:11:53;3.70;;;3.13;;
21010;SDS011;10663;42.714;23.274;2024-01-27T09:13:24;4.45;;;3.33;;
21010;SDS011;10663;42.714;23.274;2024-01-27T09:14:55;4.53;;;3.40;;
21010;SDS011;10663;42.714;23.274;2024-01-27T09:16:26;3.13;;;2.70;;
21010;SDS011;10663;42.714;23.274;2024-01-27T09:17:56;4.40;;;3.30;;
21010;SDS011;10663;42.714;23.274;2024-01-27T09:19:27;3.92;;;3.10;;
21010;SDS011;10663;42.714;23.274;2024-01-27T09:20:58;3.47;;;3.15;;
21010;SDS011;10663;42.714;23.274;2024-01-27T09:22:29;3.80;;;3.13;;
21010;SDS011;10663;42.714;23.274;2024-01-27T09:24:00;3.90;;;3.47;;
21010;SDS011;10663;42.714;23.274;2024-01-27T09:25:32;3.47;;;3.17;;
21010;SDS011;10663;42.714;23.274;2024-01-27T09:27:03;4.43;;;3.15;;
21010;SDS011;10663;42.714;23.274;2024-01-27T09:28:34;4.57;;;3.50;;
21010;SDS011;10663;42.714;23.274;2024-01-27T09:30:05;5.28;;;3.40;;
21010;SDS011;10663;42.714;23.274;2024-01-27T09:31:37;4.68;;;3.42;;
21010;SDS011;10663;42.714;23.274;2024-01-27T09:33:07;4.75;;;3.15;;
21010;SDS011;10663;42.714;23.274;2024-01-27T09:34:38;4.40;;;3.60;;
21010;SDS011;10663;42.714;23.274;2024-01-27T09:36:09;4.32;;;3.40;;
21010;SDS011;10663;42.714;23.274;2024-01-27T09:37:40;3.97;;;3.03;;
21010;SDS011;10663;42.714;23.274;2024-01-27T09:39:10;4.03;;;3.43;;
21010;SDS011;10663;42.714;23.274;2024-01-27T09:40:41;3.63;;;3.22;;
21010;SDS011;10663;42.714;23.274;2024-01-27T09:42:12;3.40;;;3.10;;
21010;SDS011;10663;42.714;23.274;2024-01-27T09:43:47;3.55;;;3.25;;
21010;SDS011;10663;42.714;23.274;2024-01-27T09:45:18;3.65;;;3.35;;
21010;SDS011;10663;42.714;23.274;2024-01-27T09:46:50;4.80;;;3.40;;
21010;SDS011;10663;42.714;23.274;2024-01-27T09:48:21;3.93;;;3.40;;
21010;SDS011;10663;42.714;23.274;2024-01-27T09:49:51;4.65;;;3.35;;
21010;SDS011;10663;42.714;23.274;2024-01-27T09:51:24;3.83;;;3.42;;
21010;SDS011;10663;42.714;23.274;2024-01-27T09:52:55;3.25;;;2.83;;
21010;SDS011;10663;42.714;23.274;2024-01-27T09:54:26;3.13;;;2.83;;
21010;SDS011;10663;42.714;23.274;2024-01-27T09:56:00;2.92;;;2.65;;
21010;SDS011;10663;42.714;23.274;2024-01-27T09:57:36;3.53;;;3.00;;
21010;SDS011;10663;42.714;23.274;2024-01-27T09:59:09;3.00;;;2.60;;
21010;SDS011;10663;42.714;23.274;2024-01-27T10:00:40;3.83;;;3.00;;
21010;SDS011;10663;42.714;23.274;2024-01-27T10:02:12;3.30;;;2.92;;
21010;SDS011;10663;42.714;23.274;2024-01-27T10:03:46;3.75;;;2.70;;
21010;SDS011;10663;42.714;23.274;2024-01-27T10:05:17;3.65;;;3.00;;
21010;SDS011;10663;42.714;23.274;2024-01-27T10:06:49;2.70;;;2.50;;
21010;SDS011;10663;42.714;23.274;2024-01-27T10:08:21;3.08;;;2.67;;
21010;SDS011;10663;42.714;23.274;2024-01-27T10:09:53;2.70;;;2.40;;
21010;SDS011;10663;42.714;23.274;2024-01-27T10:11:23;2.80;;;2.50;;
21010;SDS011;10663;42.714;23.274;2024-01-27T10:12:55;2.65;;;2.45;;
21010;SDS011;10663;42.714;23.274;2024-01-27T10:14:38;3.20;;;2.90;;
21010;SDS011;10663;42.714;23.274;2024-01-27T10:16:12;3.08;;;2.67;;
21010;SDS011;10663;42.714;23.274;2024-01-27T10:17:42;3.28;;;2.97;;
21010;SDS011;10663;42.714;23.274;2024-01-27T10:19:17;3.50;;;3.00;;
21010;SDS011;10663;42.714;23.274;2024-01-27T10:20:48;2.83;;;2.60;;
21010;SDS011;10663;42.714;23.274;2024-01-27T10:22:20;2.90;;;2.58;;
21010;SDS011;10663;42.714;23.274;2024-01-27T10:23:51;2.70;;;2.42;;
21010;SDS011;10663;42.714;23.274;2024-01-27T10:25:22;2.88;;;2.60;;
21010;SDS011;10663;42.714;23.274;2024-01-27T10:27:02;2.65;;;2.40;;
21010;SDS011;10663;42.714;23.274;2024-01-27T10:28:33;2.72;;;2.20;;
21010;SDS011;10663;42.714;23.274;2024-01-27T10:30:04;2.53;;;2.33;;
21010;SDS011;10663;42.714;23.274;2024-01-27T10:31:37;3.30;;;2.60;;
21010;SDS011;10663;42.714;23.274;2024-01-27T10:33:08;2.88;;;2.50;;
21010;SDS011;10663;42.714;23.274;2024-01-27T10:34:48;3.55;;;2.60;;
21010;SDS011;10663;42.714;23.274;2024-01-27T10:36:19;2.50;;;2.30;;
21010;SDS011;10663;42.714;23.274;2024-01-27T10:37:53;2.70;;;2.50;;
21010;SDS011;10663;42.714;23.274;2024-01-27T10:39:25;2.40;;;2.20;;
21010;SDS011;10663;42.714;23.274;2024-01-27T10:40:55;3.93;;;2.60;;
21010;SDS011;10663;42.714;23.274;2024-01-27T10:42:27;2.50;;;2.30;;
21010;SDS011;10663;42.714;23.274;2024-01-27T10:44:00;2.67;;;2.42;;
21010;SDS011;10663;42.714;23.274;2024-01-27T10:45:34;2.40;;;2.20;;
21010;SDS011;10663;42.714;23.274;2024-01-27T10:47:07;3.30;;;2.50;;
21010;SDS011;10663;42.714;23.274;2024-01-27T10:48:50;3.10;;;2.80;;
21010;SDS011;10663;42.714;23.274;2024-01-27T10:50:22;3.42;;;2.35;;
21010;SDS011;10663;42.714;23.274;2024-01-27T10:51:55;2.40;;;2.20;;
21010;SDS011;10663;42.714;23.274;2024-01-27T10:53:28;2.27;;;2.10;;
21010;SDS011;10663;42.714;23.274;2024-01-27T10:55:02;3.00;;;2.50;;
21010;SDS011;10663;42.714;23.274;2024-01-27T10:56:37;3.78;;;2.50;;
21010;SDS011;10663;42.714;23.274;2024-01-27T10:58:08;2.60;;;2.40;;
21010;SDS011;10663;42.714;23.274;2024-01-27T10:59:42;3.25;;;2.35;;
21010;SDS011;10663;42.714;23.274;2024-01-27T11:01:15;3.05;;;2.47;;
21010;SDS011;10663;42.714;23.274;2024-01-27T11:02:47;4.22;;;2.60;;
21010;SDS011;10663;42.714;23.274;2024-01-27T11:04:23;3.72;;;2.58;;
21010;SDS011;10663;42.714;23.274;2024-01-27T11:05:56;2.60;;;2.40;;
21010;SDS011;10663;42.714;23.274;2024-01-27T11:07:28;2.70;;;2.50;;
21010;SDS011;10663;42.714;23.274;2024-01-27T11:09:02;3.22;;;2.72;;
21010;SDS011;10663;42.714;23.274;2024-01-27T11:10:35;3.38;;;2.90;;
21010;SDS011;10663;42.714;23.274;2024-01-27T11:12:08;3.35;;;2.65;;
21010;SDS011;10663;42.714;23.274;2024-01-27T11:13:40;3.08;;;2.70;;
21010;SDS011;10663;42.714;23.274;2024-01-27T11:15:11;3.33;;;3.03;;
21010;SDS011;10663;42.714;23.274;2024-01-27T11:16:43;3.17;;;2.88;;
21010;SDS011;10663;42.714;23.274;2024-01-27T11:18:16;3.60;;;3.00;;
21010;SDS011;10663;42.714;23.274;2024-01-27T11:19:47;3.03;;;2.73;;
21010;SDS011;10663;42.714;23.274;2024-01-27T11:21:18;3.50;;;3.00;;
21010;SDS011;10663;42.714;23.274;2024-01-27T11:22:50;3.80;;;2.92;;
21010;SDS011;10663;42.714;23.274;2024-01-27T11:24:21;3.63;;;3.15;;
21010;SDS011;10663;42.714;23.274;2024-01-27T11:26:02;3.78;;;2.90;;
21010;SDS011;10663;42.714;23.274;2024-01-27T11:27:36;3.88;;;3.10;;
21010;SDS011;10663;42.714;23.274;2024-01-27T11:29:07;3.80;;;3.10;;
21010;SDS011;10663;42.714;23.274;2024-01-27T11:30:41;3.22;;;2.92;;
21010;SDS011;10663;42.714;23.274;2024-01-27T11:32:16;3.58;;;3.35;;
21010;SDS011;10663;42.714;23.274;2024-01-27T11:33:48;4.30;;;3.03;;
21010;SDS011;10663;42.714;23.274;2024-01-27T11:35:22;3.35;;;3.10;;
21010;SDS011;10663;42.714;23.274;2024-01-27T11:36:54;3.30;;;3.10;;
21010;SDS011;10663;42.714;23.274;2024-01-27T11:38:24;4.18;;;3.20;;
21010;SDS011;10663;42.714;23.274;2024-01-27T11:40:03;3.90;;;3.50;;
21010;SDS011;10663;42.714;23.274;2024-01-27T11:41:36;3.60;;;3.30;;
21010;SDS011;10663;42.714;23.274;2024-01-27T11:43:08;3.95;;;3.55;;
21010;SDS011;10663;42.714;23.274;2024-01-27T11:44:44;3.55;;;3.25;;
21010;SDS011;10663;42.714;23.274;2024-01-27T11:46:18;3.42;;;3.00;;
21010;SDS011;10663;42.714;23.274;2024-01-27T11:47:49;4.47;;;3.50;;
21010;SDS011;10663;42.714;23.274;2024-01-27T11:49:20;3.70;;;3.33;;
21010;SDS011;10663;42.714;23.274;2024-01-27T11:51:07;5.10;;;3.58;;
21010;SDS011;10663;42.714;23.274;2024-01-27T11:52:41;4.55;;;3.40;;
21010;SDS011;10663;42.714;23.274;2024-01-27T11:54:11;4.90;;;3.73;;
21010;SDS011;10663;42.714;23.274;2024-01-27T11:55:43;5.82;;;3.60;;
21010;SDS011;10663;42.714;23.274;2024-01-27T11:57:26;4.10;;;3.63;;
21010;SDS011;10663;42.714;23.274;2024-01-27T11:58:57;3.88;;;3.55;;
21010;SDS011;10663;42.714;23.274;2024-01-27T12:00:28;3.42;;;3.13;;
21010;SDS011;10663;42.714;23.274;2024-01-27T12:02:00;3.70;;;3.40;;
21010;SDS011;10663;42.714;23.274;2024-01-27T12:03:32;4.25;;;3.10;;
21010;SDS011;10663;42.714;23.274;2024-01-27T12:05:03;3.30;;;2.88;;
21010;SDS011;10663;42.714;23.274;2024-01-27T12:06:35;4.53;;;3.15;;
21010;SDS011;10663;42.714;23.274;2024-01-27T12:08:08;3.80;;;3.05;;
21010;SDS011;10663;42.714;23.274;2024-01-27T12:09:39;3.70;;;3.30;;
21010;SDS011;10663;42.714;23.274;2024-01-27T12:11:10;3.60;;;3.30;;
21010;SDS011;10663;42.714;23.274;2024-01-27T12:12:40;3.92;;;3.45;;
21010;SDS011;10663;42.714;23.274;2024-01-27T12:14:11;3.53;;;3.22;;
21010;SDS011;10663;42.714;23.274;2024-01-27T12:15:42;4.43;;;3.20;;
21010;SDS011;10663;42.714;23.274;2024-01-27T12:17:13;3.50;;;3.20;;
21010;SDS011;10663;42.714;23.274;2024-01-27T12:18:44;3.50;;;3.10;;
21010;SDS011;10663;42.714;23.274;2024-01-27T12:20:16;3.67;;;3.00;;
21010;SDS011;10663;42.714;23.274;2024-01-27T12:21:47;4.25;;;3.20;;
21010;SDS011;10663;42.714;23.274;2024-01-27T12:23:21;3.83;;;2.80;;
21010;SDS011;10663;42.714;23.274;2024-01-27T12:24:56;3.43;;;3.13;;
21010;SDS011;10663;42.714;23.274;2024-01-27T12:26:38;3.45;;;2.83;;
21010;SDS011;10663;42.714;23.274;2024-01-27T12:28:12;3.55;;;2.80;;
21010;SDS011;10663;42.714;23.274;2024-01-27T12:29:43;3.57;;;3.13;;
21010;SDS011;10663;42.714;23.274;2024-01-27T12:31:14;5.15;;;2.97;;
21010;SDS011;10663;42.714;23.274;2024-01-27T12:32:47;3.65;;;3.10;;
21010;SDS011;10663;42.714;23.274;2024-01-27T12:34:18;3.10;;;2.80;;
21010;SDS011;10663;42.714;23.274;2024-01-27T12:35:50;4.28;;;3.15;;
21010;SDS011;10663;42.714;23.274;2024-01-27T12:37:21;4.03;;;2.70;;
21010;SDS011;10663;42.714;23.274;2024-01-27T12:39:11;4.10;;;3.13;;
21010;SDS011;10663;42.714;23.274;2024-01-27T12:40:41;4.20;;;3.00;;
21010;SDS011;10663;42.714;23.274;2024-01-27T12:42:13;3.50;;;2.95;;
21010;SDS011;10663;42.714;23.274;2024-01-27T12:43:43;3.80;;;3.17;;
21010;SDS011;10663;42.714;23.274;2024-01-27T12:45:14;3.60;;;2.88;;
21010;SDS011;10663;42.714;23.274;2024-01-27T12:46:45;4.68;;;3.53;;
21010;SDS011;10663;42.714;23.274;2024-01-27T12:48:16;4.10;;;2.60;;
21010;SDS011;10663;42.714;23.274;2024-01-27T12:49:47;3.33;;;3.03;;
21010;SDS011;10663;42.714;23.274;2024-01-27T12:51:17;3.53;;;3.13;;
21010;SDS011;10663;42.714;23.274;2024-01-27T12:52:48;4.30;;;3.00;;
21010;SDS011;10663;42.714;23.274;2024-01-27T12:54:19;4.57;;;2.63;;
21010;SDS011;10663;42.714;23.274;2024-01-27T12:55:49;4.63;;;2.67;;
21010;SDS011;10663;42.714;23.274;2024-01-27T12:57:20;4.40;;;2.67;;
21010;SDS011;10663;42.714;23.274;2024-01-27T12:58:51;4.13;;;2.30;;
21010;SDS011;10663;42.714;23.274;2024-01-27T13:00:22;3.37;;;2.50;;
21010;SDS011;10663;42.714;23.274;2024-01-27T13:01:53;5.43;;;2.50;;
21010;SDS011;10663;42.714;23.274;2024-01-27T13:03:23;2.43;;;2.20;;
21010;SDS011;10663;42.714;23.274;2024-01-27T13:04:54;3.97;;;2.47;;
21010;SDS011;10663;42.714;23.274;2024-01-27T13:06:25;3.00;;;2.45;;
21010;SDS011;10663;42.714;23.274;2024-01-27T13:07:56;3.30;;;2.30;;
21010;SDS011;10663;42.714;23.274;2024-01-27T13:09:26;2.33;;;2.07;;
21010;SDS011;10663;42.714;23.274;2024-01-27T13:10:57;3.72;;;2.50;;
21010;SDS011;10663;42.714;23.274;2024-01-27T13:12:28;3.83;;;2.20;;
21010;SDS011;10663;42.714;23.274;2024-01-27T13:13:59;3.60;;;2.33;;
21010;SDS011;10663;42.714;23.274;2024-01-27T13:15:30;3.22;;;2.70;;
21010;SDS011;10663;42.714;23.274;2024-01-27T13:17:00;2.80;;;2.25;;
21010;SDS011;10663;42.714;23.274;2024-01-27T13:18:32;2.67;;;2.42;;
21010;SDS011;10663;42.714;23.274;2024-01-27T13:20:02;2.43;;;2.10;;
21010;SDS011;10663;42.714;23.274;2024-01-27T13:21:34;2.20;;;1.90;;
21010;SDS011;10663;42.714;23.274;2024-01-27T13:23:05;3.07;;;2.30;;
21010;SDS011;10663;42.714;23.274;2024-01-27T13:24:37;2.70;;;2.50;;
21010;SDS011;10663;42.714;23.274;2024-01-27T13:26:08;2.65;;;2.30;;
21010;SDS011;10663;42.714;23.274;2024-01-27T13:27:40;4.35;;;2.45;;
21010;SDS011;10663;42.714;23.274;2024-01-27T13:29:10;3.20;;;2.63;;
21010;SDS011;10663;42.714;23.274;2024-01-27T13:30:41;3.75;;;2.70;;
21010;SDS011;10663;42.714;23.274;2024-01-27T13:32:12;3.75;;;2.50;;
21010;SDS011;10663;42.714;23.274;2024-01-27T13:33:43;4.32;;;2.70;;
21010;SDS011;10663;42.714;23.274;2024-01-27T13:35:14;3.70;;;2.78;;
21010;SDS011;10663;42.714;23.274;2024-01-27T13:36:44;3.37;;;2.20;;
21010;SDS011;10663;42.714;23.274;2024-01-27T13:38:18;3.90;;;2.37;;
21010;SDS011;10663;42.714;23.274;2024-01-27T13:39:53;4.47;;;2.95;;
21010;SDS011;10663;42.714;23.274;2024-01-27T13:41:26;4.25;;;2.58;;
21010;SDS011;10663;42.714;23.274;2024-01-27T13:42:57;4.30;;;2.67;;
21010;SDS011;10663;42.714;23.274;2024-01-27T13:44:28;3.38;;;2.70;;
21010;SDS011;10663;42.714;23.274;2024-01-27T13:46:00;3.40;;;2.53;;
21010;SDS011;10663;42.714;23.274;2024-01-27T13:47:31;3.78;;;2.10;;
21010;SDS011;10663;42.714;23.274;2024-01-27T13:49:02;3.40;;;2.22;;
21010;SDS011;10663;42.714;23.274;2024-01-27T13:50:32;3.67;;;2.30;;
21010;SDS011;10663;42.714;23.274;2024-01-27T13:52:03;3.50;;;2.40;;
21010;SDS011;10663;42.714;23.274;2024-01-27T13:53:34;3.23;;;2.00;;
21010;SDS011;10663;42.714;23.274;2024-01-27T13:55:05;4.88;;;2.30;;
21010;SDS011;10663;42.714;23.274;2024-01-27T13:56:36;2.83;;;2.30;;
21010;SDS011;10663;42.714;23.274;2024-01-27T13:58:07;4.07;;;2.30;;
21010;SDS011;10663;42.714;23.274;2024-01-27T13:59:37;3.58;;;2.42;;
21010;SDS011;10663;42.714;23.274;2024-01-27T14:01:08;2.92;;;2.47;;
21010;SDS011;10663;42.714;23.274;2024-01-27T14:02:39;3.67;;;2.38;;
21010;SDS011;10663;42.714;23.274;2024-01-27T14:04:10;4.95;;;2.80;;
21010;SDS011;10663;42.714;23.274;2024-01-27T14:05:41;3.38;;;2.40;;
21010;SDS011;10663;42.714;23.274;2024-01-27T14:07:13;5.18;;;2.67;;
21010;SDS011;10663;42.714;23.274;2024-01-27T14:08:44;3.35;;;2.60;;
21010;SDS011;10663;42.714;23.274;2024-01-27T14:10:15;4.25;;;2.58;;
21010;SDS011;10663;42.714;23.274;2024-01-27T14:11:45;4.20;;;2.67;;
21010;SDS011;10663;42.714;23.274;2024-01-27T14:13:16;3.65;;;2.92;;
21010;SDS011;10663;42.714;23.274;2024-01-27T14:14:48;4.43;;;2.80;;
21010;SDS011;10663;42.714;23.274;2024-01-27T14:16:19;3.88;;;2.88;;